Terminal Aerodrome Forecast
Issued by NWS

Home | Current Version | Previous Version | Text Only | Print | Product List | Glossary On
Versions: 1 2 3 4 5 6 7 8 9 10 11 12
000
FTUS45 KPIH 271700
TAFSUN
TAF
KSUN 271729Z 2718/2818 32006KT P6SM SCT070 BKN120 OVC180
     FM271900 15006KT P6SM SCT120 OVC180
     FM280200 31007KT P6SM SCT120 OVC180=

USA.gov is the U.S. government's official web portal to all federal, state and local government web resources and services.